sensor_id;sensor_type;location;lat;lon;timestamp;P1;durP1;ratioP1;P2;durP2;ratioP2
64457;SDS011;58438;51.200;7.252;2023-01-05T00:01:47;12.98;;;3.35;;
64457;SDS011;58438;51.200;7.252;2023-01-05T00:04:34;16.08;;;2.97;;
64457;SDS011;58438;51.200;7.252;2023-01-05T00:07:21;14.07;;;3.10;;
64457;SDS011;58438;51.200;7.252;2023-01-05T00:10:08;14.32;;;3.40;;
64457;SDS011;58438;51.200;7.252;2023-01-05T00:13:15;13.80;;;2.65;;
64457;SDS011;58438;51.200;7.252;2023-01-05T00:16:20;22.48;;;2.92;;
64457;SDS011;58438;51.200;7.252;2023-01-05T00:19:27;16.63;;;3.13;;
64457;SDS011;58438;51.200;7.252;2023-01-05T00:22:32;17.63;;;3.45;;
64457;SDS011;58438;51.200;7.252;2023-01-05T00:25:21;10.10;;;3.00;;
64457;SDS011;58438;51.200;7.252;2023-01-05T00:28:08;14.80;;;3.05;;
64457;SDS011;58438;51.200;7.252;2023-01-05T00:30:55;14.82;;;3.55;;
64457;SDS011;58438;51.200;7.252;2023-01-05T00:33:41;11.57;;;2.65;;
64457;SDS011;58438;51.200;7.252;2023-01-05T00:36:30;18.13;;;3.78;;
64457;SDS011;58438;51.200;7.252;2023-01-05T00:39:17;21.38;;;3.47;;
64457;SDS011;58438;51.200;7.252;2023-01-05T00:42:04;13.68;;;3.22;;
64457;SDS011;58438;51.200;7.252;2023-01-05T00:44:51;17.75;;;4.40;;
64457;SDS011;58438;51.200;7.252;2023-01-05T00:47:38;18.75;;;3.35;;
64457;SDS011;58438;51.200;7.252;2023-01-05T00:50:25;13.60;;;3.35;;
64457;SDS011;58438;51.200;7.252;2023-01-05T00:53:13;12.85;;;3.55;;
64457;SDS011;58438;51.200;7.252;2023-01-05T00:56:00;13.98;;;4.05;;
64457;SDS011;58438;51.200;7.252;2023-01-05T00:58:47;13.02;;;4.35;;
64457;SDS011;58438;51.200;7.252;2023-01-05T01:01:38;9.90;;;3.00;;
64457;SDS011;58438;51.200;7.252;2023-01-05T01:04:26;13.43;;;3.10;;
64457;SDS011;58438;51.200;7.252;2023-01-05T01:07:12;10.18;;;2.85;;
64457;SDS011;58438;51.200;7.252;2023-01-05T01:10:01;17.02;;;3.75;;
64457;SDS011;58438;51.200;7.252;2023-01-05T01:12:48;11.32;;;4.53;;
64457;SDS011;58438;51.200;7.252;2023-01-05T01:15:35;13.50;;;3.47;;
64457;SDS011;58438;51.200;7.252;2023-01-05T01:18:22;14.75;;;3.00;;
64457;SDS011;58438;51.200;7.252;2023-01-05T01:21:09;16.88;;;4.35;;
64457;SDS011;58438;51.200;7.252;2023-01-05T01:23:56;19.17;;;4.75;;
64457;SDS011;58438;51.200;7.252;2023-01-05T01:26:45;19.40;;;4.00;;
64457;SDS011;58438;51.200;7.252;2023-01-05T01:29:33;15.60;;;4.55;;
64457;SDS011;58438;51.200;7.252;2023-01-05T01:32:22;14.50;;;3.50;;
64457;SDS011;58438;51.200;7.252;2023-01-05T01:35:11;11.30;;;3.03;;
64457;SDS011;58438;51.200;7.252;2023-01-05T01:38:00;14.88;;;4.18;;
64457;SDS011;58438;51.200;7.252;2023-01-05T01:40:49;13.73;;;3.70;;
64457;SDS011;58438;51.200;7.252;2023-01-05T01:43:42;13.60;;;4.38;;
64457;SDS011;58438;51.200;7.252;2023-01-05T01:46:31;16.95;;;3.30;;
64457;SDS011;58438;51.200;7.252;2023-01-05T01:49:22;19.55;;;4.00;;
64457;SDS011;58438;51.200;7.252;2023-01-05T01:52:10;11.82;;;3.13;;
64457;SDS011;58438;51.200;7.252;2023-01-05T01:55:00;19.13;;;3.80;;
64457;SDS011;58438;51.200;7.252;2023-01-05T01:57:53;15.53;;;4.73;;
64457;SDS011;58438;51.200;7.252;2023-01-05T02:00:45;22.65;;;4.95;;
64457;SDS011;58438;51.200;7.252;2023-01-05T02:03:36;12.18;;;3.60;;
64457;SDS011;58438;51.200;7.252;2023-01-05T02:06:26;9.27;;;2.92;;
64457;SDS011;58438;51.200;7.252;2023-01-05T02:09:16;16.83;;;3.78;;
64457;SDS011;58438;51.200;7.252;2023-01-05T02:12:09;13.15;;;3.45;;
64457;SDS011;58438;51.200;7.252;2023-01-05T02:15:07;12.90;;;3.95;;
64457;SDS011;58438;51.200;7.252;2023-01-05T02:18:11;13.32;;;3.65;;
64457;SDS011;58438;51.200;7.252;2023-01-05T02:21:15;20.77;;;2.63;;
64457;SDS011;58438;51.200;7.252;2023-01-05T02:33:48;16.25;;;3.85;;
64457;SDS011;58438;51.200;7.252;2023-01-05T02:36:53;15.70;;;4.50;;
64457;SDS011;58438;51.200;7.252;2023-01-05T02:39:45;14.13;;;4.07;;
64457;SDS011;58438;51.200;7.252;2023-01-05T02:42:38;14.55;;;3.50;;
64457;SDS011;58438;51.200;7.252;2023-01-05T02:45:26;12.80;;;3.28;;
64457;SDS011;58438;51.200;7.252;2023-01-05T02:48:15;15.80;;;4.47;;
64457;SDS011;58438;51.200;7.252;2023-01-05T02:51:04;17.85;;;4.65;;
64457;SDS011;58438;51.200;7.252;2023-01-05T02:53:52;16.83;;;4.90;;
64457;SDS011;58438;51.200;7.252;2023-01-05T02:56:46;17.67;;;4.45;;
64457;SDS011;58438;51.200;7.252;2023-01-05T02:59:36;19.20;;;4.05;;
64457;SDS011;58438;51.200;7.252;2023-01-05T03:02:28;17.88;;;4.47;;
64457;SDS011;58438;51.200;7.252;2023-01-05T03:05:20;17.42;;;4.40;;
64457;SDS011;58438;51.200;7.252;2023-01-05T03:08:11;27.58;;;5.88;;
64457;SDS011;58438;51.200;7.252;2023-01-05T03:11:14;14.65;;;3.67;;
64457;SDS011;58438;51.200;7.252;2023-01-05T03:14:19;12.65;;;3.72;;
64457;SDS011;58438;51.200;7.252;2023-01-05T03:17:11;18.52;;;5.10;;
64457;SDS011;58438;51.200;7.252;2023-01-05T03:20:02;18.80;;;3.78;;
64457;SDS011;58438;51.200;7.252;2023-01-05T03:22:52;18.15;;;3.72;;
64457;SDS011;58438;51.200;7.252;2023-01-05T03:25:59;11.98;;;4.47;;
64457;SDS011;58438;51.200;7.252;2023-01-05T03:29:05;13.35;;;3.50;;
64457;SDS011;58438;51.200;7.252;2023-01-05T03:35:20;18.10;;;4.50;;
64457;SDS011;58438;51.200;7.252;2023-01-05T03:38:22;18.77;;;3.83;;
64457;SDS011;58438;51.200;7.252;2023-01-05T03:41:14;15.80;;;3.83;;
64457;SDS011;58438;51.200;7.252;2023-01-05T03:44:03;17.25;;;4.00;;
64457;SDS011;58438;51.200;7.252;2023-01-05T03:46:52;22.40;;;4.20;;
64457;SDS011;58438;51.200;7.252;2023-01-05T03:49:40;20.63;;;4.82;;
64457;SDS011;58438;51.200;7.252;2023-01-05T03:52:28;12.13;;;3.25;;
64457;SDS011;58438;51.200;7.252;2023-01-05T03:55:17;11.98;;;3.47;;
64457;SDS011;58438;51.200;7.252;2023-01-05T03:58:04;15.52;;;3.60;;
64457;SDS011;58438;51.200;7.252;2023-01-05T04:00:52;13.45;;;3.47;;
64457;SDS011;58438;51.200;7.252;2023-01-05T04:03:39;16.25;;;4.75;;
64457;SDS011;58438;51.200;7.252;2023-01-05T04:06:26;11.48;;;3.58;;
64457;SDS011;58438;51.200;7.252;2023-01-05T04:09:14;16.40;;;3.63;;
64457;SDS011;58438;51.200;7.252;2023-01-05T04:12:03;20.02;;;5.82;;
64457;SDS011;58438;51.200;7.252;2023-01-05T04:14:51;17.23;;;4.40;;
64457;SDS011;58438;51.200;7.252;2023-01-05T04:17:39;18.27;;;5.18;;
64457;SDS011;58438;51.200;7.252;2023-01-05T04:20:26;17.23;;;3.28;;
64457;SDS011;58438;51.200;7.252;2023-01-05T04:23:14;15.85;;;3.97;;
64457;SDS011;58438;51.200;7.252;2023-01-05T04:26:01;16.70;;;4.30;;
64457;SDS011;58438;51.200;7.252;2023-01-05T04:28:51;15.63;;;4.00;;
64457;SDS011;58438;51.200;7.252;2023-01-05T04:31:38;17.45;;;4.68;;
64457;SDS011;58438;51.200;7.252;2023-01-05T04:34:26;21.00;;;4.30;;
64457;SDS011;58438;51.200;7.252;2023-01-05T04:37:13;16.77;;;4.07;;
64457;SDS011;58438;51.200;7.252;2023-01-05T04:40:01;19.50;;;4.65;;
64457;SDS011;58438;51.200;7.252;2023-01-05T04:42:49;18.38;;;4.47;;
64457;SDS011;58438;51.200;7.252;2023-01-05T04:45:38;22.23;;;4.75;;
64457;SDS011;58438;51.200;7.252;2023-01-05T04:48:25;14.15;;;4.22;;
64457;SDS011;58438;51.200;7.252;2023-01-05T04:51:13;17.80;;;4.18;;
64457;SDS011;58438;51.200;7.252;2023-01-05T04:54:00;19.83;;;4.68;;
64457;SDS011;58438;51.200;7.252;2023-01-05T04:56:48;18.42;;;4.72;;
64457;SDS011;58438;51.200;7.252;2023-01-05T04:59:36;23.52;;;5.68;;
64457;SDS011;58438;51.200;7.252;2023-01-05T05:02:24;13.25;;;5.03;;
64457;SDS011;58438;51.200;7.252;2023-01-05T05:05:12;22.17;;;5.05;;
64457;SDS011;58438;51.200;7.252;2023-01-05T05:08:00;18.33;;;4.97;;
64457;SDS011;58438;51.200;7.252;2023-01-05T05:10:47;18.83;;;5.88;;
64457;SDS011;58438;51.200;7.252;2023-01-05T05:13:35;22.90;;;5.88;;
64457;SDS011;58438;51.200;7.252;2023-01-05T05:16:22;26.15;;;6.20;;
64457;SDS011;58438;51.200;7.252;2023-01-05T05:19:11;21.85;;;6.35;;
64457;SDS011;58438;51.200;7.252;2023-01-05T05:21:59;17.27;;;5.53;;
64457;SDS011;58438;51.200;7.252;2023-01-05T05:24:46;16.77;;;6.13;;
64457;SDS011;58438;51.200;7.252;2023-01-05T05:27:34;14.85;;;5.38;;
64457;SDS011;58438;51.200;7.252;2023-01-05T05:30:22;17.38;;;5.65;;
64457;SDS011;58438;51.200;7.252;2023-01-05T05:33:09;17.42;;;5.75;;
64457;SDS011;58438;51.200;7.252;2023-01-05T05:35:58;23.42;;;7.05;;
64457;SDS011;58438;51.200;7.252;2023-01-05T05:38:45;25.15;;;6.45;;
64457;SDS011;58438;51.200;7.252;2023-01-05T05:41:33;19.98;;;5.47;;
64457;SDS011;58438;51.200;7.252;2023-01-05T05:44:21;24.88;;;7.20;;
64457;SDS011;58438;51.200;7.252;2023-01-05T05:47:08;24.67;;;7.10;;
64457;SDS011;58438;51.200;7.252;2023-01-05T05:49:56;21.88;;;7.45;;
64457;SDS011;58438;51.200;7.252;2023-01-05T05:52:45;20.65;;;7.18;;
64457;SDS011;58438;51.200;7.252;2023-01-05T05:55:33;29.13;;;7.88;;
64457;SDS011;58438;51.200;7.252;2023-01-05T05:58:20;21.85;;;7.00;;
64457;SDS011;58438;51.200;7.252;2023-01-05T06:01:08;27.23;;;6.95;;
64457;SDS011;58438;51.200;7.252;2023-01-05T06:03:55;22.98;;;7.25;;
64457;SDS011;58438;51.200;7.252;2023-01-05T06:06:43;26.15;;;7.70;;
64457;SDS011;58438;51.200;7.252;2023-01-05T06:09:31;13.30;;;5.80;;
64457;SDS011;58438;51.200;7.252;2023-01-05T06:12:18;26.10;;;7.97;;
64457;SDS011;58438;51.200;7.252;2023-01-05T06:15:06;21.67;;;6.75;;
64457;SDS011;58438;51.200;7.252;2023-01-05T06:17:53;21.35;;;6.80;;
64457;SDS011;58438;51.200;7.252;2023-01-05T06:20:41;19.27;;;6.28;;
64457;SDS011;58438;51.200;7.252;2023-01-05T06:23:29;30.15;;;7.35;;
64457;SDS011;58438;51.200;7.252;2023-01-05T06:26:18;21.30;;;6.70;;
64457;SDS011;58438;51.200;7.252;2023-01-05T06:29:06;22.85;;;7.25;;
64457;SDS011;58438;51.200;7.252;2023-01-05T06:31:53;18.25;;;5.15;;
64457;SDS011;58438;51.200;7.252;2023-01-05T06:34:41;29.33;;;7.13;;
64457;SDS011;58438;51.200;7.252;2023-01-05T06:37:28;25.80;;;6.93;;
64457;SDS011;58438;51.200;7.252;2023-01-05T06:40:16;26.45;;;7.22;;
64457;SDS011;58438;51.200;7.252;2023-01-05T06:43:05;25.67;;;8.75;;
64457;SDS011;58438;51.200;7.252;2023-01-05T06:45:52;33.10;;;9.23;;
64457;SDS011;58438;51.200;7.252;2023-01-05T06:48:39;25.23;;;7.78;;
64457;SDS011;58438;51.200;7.252;2023-01-05T06:51:27;21.20;;;6.80;;
64457;SDS011;58438;51.200;7.252;2023-01-05T06:54:14;22.00;;;7.90;;
64457;SDS011;58438;51.200;7.252;2023-01-05T06:57:02;25.95;;;7.43;;
64457;SDS011;58438;51.200;7.252;2023-01-05T06:59:52;23.17;;;8.00;;
64457;SDS011;58438;51.200;7.252;2023-01-05T07:02:40;31.95;;;8.93;;
64457;SDS011;58438;51.200;7.252;2023-01-05T07:05:28;32.22;;;8.85;;
64457;SDS011;58438;51.200;7.252;2023-01-05T07:08:15;29.15;;;8.85;;
64457;SDS011;58438;51.200;7.252;2023-01-05T07:11:05;35.08;;;10.00;;
64457;SDS011;58438;51.200;7.252;2023-01-05T07:13:53;30.52;;;8.20;;
64457;SDS011;58438;51.200;7.252;2023-01-05T07:16:42;31.85;;;10.57;;
64457;SDS011;58438;51.200;7.252;2023-01-05T07:19:29;25.35;;;9.60;;
64457;SDS011;58438;51.200;7.252;2023-01-05T07:22:17;31.08;;;8.68;;
64457;SDS011;58438;51.200;7.252;2023-01-05T07:25:05;44.90;;;10.57;;
64457;SDS011;58438;51.200;7.252;2023-01-05T07:27:53;39.78;;;9.70;;
64457;SDS011;58438;51.200;7.252;2023-01-05T07:30:41;26.90;;;8.82;;
64457;SDS011;58438;51.200;7.252;2023-01-05T07:33:30;28.02;;;8.98;;
64457;SDS011;58438;51.200;7.252;2023-01-05T07:36:24;33.38;;;8.23;;
64457;SDS011;58438;51.200;7.252;2023-01-05T07:39:12;31.10;;;9.48;;
64457;SDS011;58438;51.200;7.252;2023-01-05T07:41:59;32.08;;;8.35;;
64457;SDS011;58438;51.200;7.252;2023-01-05T07:44:47;30.63;;;8.20;;
64457;SDS011;58438;51.200;7.252;2023-01-05T07:47:37;30.48;;;8.73;;
64457;SDS011;58438;51.200;7.252;2023-01-05T07:50:26;23.88;;;8.60;;
64457;SDS011;58438;51.200;7.252;2023-01-05T07:53:13;30.80;;;8.38;;
64457;SDS011;58438;51.200;7.252;2023-01-05T07:56:01;36.67;;;8.63;;
64457;SDS011;58438;51.200;7.252;2023-01-05T07:58:49;25.02;;;7.63;;
64457;SDS011;58438;51.200;7.252;2023-01-05T08:01:37;33.70;;;9.52;;
64457;SDS011;58438;51.200;7.252;2023-01-05T08:04:24;23.83;;;8.70;;
64457;SDS011;58438;51.200;7.252;2023-01-05T08:07:14;34.80;;;8.20;;
64457;SDS011;58438;51.200;7.252;2023-01-05T08:10:02;19.73;;;8.50;;
64457;SDS011;58438;51.200;7.252;2023-01-05T08:13:07;26.35;;;6.88;;
64457;SDS011;58438;51.200;7.252;2023-01-05T08:16:13;29.27;;;8.73;;
64457;SDS011;58438;51.200;7.252;2023-01-05T08:19:01;30.80;;;8.57;;
64457;SDS011;58438;51.200;7.252;2023-01-05T08:21:55;19.17;;;6.88;;
64457;SDS011;58438;51.200;7.252;2023-01-05T08:24:44;36.97;;;8.63;;
64457;SDS011;58438;51.200;7.252;2023-01-05T08:27:32;26.45;;;8.38;;
64457;SDS011;58438;51.200;7.252;2023-01-05T08:30:20;27.55;;;8.20;;
64457;SDS011;58438;51.200;7.252;2023-01-05T08:33:07;27.73;;;9.30;;
64457;SDS011;58438;51.200;7.252;2023-01-05T08:35:55;31.40;;;9.40;;
64457;SDS011;58438;51.200;7.252;2023-01-05T08:38:42;34.50;;;9.68;;
64457;SDS011;58438;51.200;7.252;2023-01-05T08:41:36;25.30;;;8.77;;
64457;SDS011;58438;51.200;7.252;2023-01-05T08:44:24;32.33;;;8.73;;
64457;SDS011;58438;51.200;7.252;2023-01-05T08:47:12;36.40;;;9.38;;
64457;SDS011;58438;51.200;7.252;2023-01-05T08:50:03;29.95;;;8.23;;
64457;SDS011;58438;51.200;7.252;2023-01-05T08:52:52;26.65;;;8.40;;
64457;SDS011;58438;51.200;7.252;2023-01-05T08:55:39;26.00;;;7.63;;
64457;SDS011;58438;51.200;7.252;2023-01-05T08:58:28;32.05;;;7.97;;
64457;SDS011;58438;51.200;7.252;2023-01-05T09:01:16;31.45;;;8.43;;
64457;SDS011;58438;51.200;7.252;2023-01-05T09:04:07;34.60;;;9.82;;
64457;SDS011;58438;51.200;7.252;2023-01-05T09:06:54;27.13;;;8.73;;
64457;SDS011;58438;51.200;7.252;2023-01-05T09:09:42;24.83;;;8.75;;
64457;SDS011;58438;51.200;7.252;2023-01-05T09:12:29;33.28;;;9.50;;
64457;SDS011;58438;51.200;7.252;2023-01-05T09:15:19;33.25;;;7.55;;
64457;SDS011;58438;51.200;7.252;2023-01-05T09:18:07;33.85;;;8.55;;
64457;SDS011;58438;51.200;7.252;2023-01-05T09:20:55;28.08;;;9.18;;
64457;SDS011;58438;51.200;7.252;2023-01-05T09:23:42;41.17;;;10.35;;
64457;SDS011;58438;51.200;7.252;2023-01-05T09:26:30;32.72;;;10.48;;
64457;SDS011;58438;51.200;7.252;2023-01-05T09:29:17;29.75;;;9.35;;
64457;SDS011;58438;51.200;7.252;2023-01-05T09:32:06;33.35;;;8.93;;
64457;SDS011;58438;51.200;7.252;2023-01-05T09:34:56;33.80;;;8.50;;
64457;SDS011;58438;51.200;7.252;2023-01-05T09:37:44;28.67;;;8.63;;
64457;SDS011;58438;51.200;7.252;2023-01-05T09:40:32;29.55;;;9.02;;
64457;SDS011;58438;51.200;7.252;2023-01-05T09:43:21;24.98;;;8.05;;
64457;SDS011;58438;51.200;7.252;2023-01-05T09:46:15;25.97;;;7.57;;
64457;SDS011;58438;51.200;7.252;2023-01-05T09:49:09;36.17;;;7.72;;
64457;SDS011;58438;51.200;7.252;2023-01-05T09:52:00;25.27;;;8.60;;
64457;SDS011;58438;51.200;7.252;2023-01-05T09:54:51;32.60;;;8.93;;
64457;SDS011;58438;51.200;7.252;2023-01-05T09:57:38;25.55;;;8.20;;
64457;SDS011;58438;51.200;7.252;2023-01-05T10:00:26;28.58;;;8.00;;
64457;SDS011;58438;51.200;7.252;2023-01-05T10:03:16;32.00;;;8.75;;
64457;SDS011;58438;51.200;7.252;2023-01-05T10:06:28;27.65;;;7.75;;
64457;SDS011;58438;51.200;7.252;2023-01-05T10:09:20;43.30;;;9.88;;
64457;SDS011;58438;51.200;7.252;2023-01-05T10:12:12;37.60;;;8.50;;
64457;SDS011;58438;51.200;7.252;2023-01-05T10:15:23;31.88;;;8.07;;
64457;SDS011;58438;51.200;7.252;2023-01-05T10:18:14;36.03;;;7.90;;
64457;SDS011;58438;51.200;7.252;2023-01-05T10:21:05;25.75;;;7.20;;
64457;SDS011;58438;51.200;7.252;2023-01-05T10:24:04;25.45;;;7.15;;
64457;SDS011;58438;51.200;7.252;2023-01-05T10:27:03;30.33;;;7.78;;
64457;SDS011;58438;51.200;7.252;2023-01-05T10:30:12;25.45;;;9.00;;
64457;SDS011;58438;51.200;7.252;2023-01-05T10:33:09;33.90;;;7.90;;
64457;SDS011;58438;51.200;7.252;2023-01-05T10:36:29;44.40;;;9.20;;
64457;SDS011;58438;51.200;7.252;2023-01-05T10:39:52;29.00;;;8.50;;
64457;SDS011;58438;51.200;7.252;2023-01-05T10:42:48;23.85;;;7.35;;
64457;SDS011;58438;51.200;7.252;2023-01-05T10:45:44;21.63;;;7.18;;
64457;SDS011;58438;51.200;7.252;2023-01-05T10:48:51;30.65;;;7.15;;
64457;SDS011;58438;51.200;7.252;2023-01-05T10:51:39;35.75;;;7.38;;
64457;SDS011;58438;51.200;7.252;2023-01-05T10:54:30;24.05;;;8.02;;
64457;SDS011;58438;51.200;7.252;2023-01-05T10:57:39;30.05;;;9.63;;
64457;SDS011;58438;51.200;7.252;2023-01-05T11:00:38;25.75;;;7.57;;
64457;SDS011;58438;51.200;7.252;2023-01-05T11:03:28;26.10;;;8.07;;
64457;SDS011;58438;51.200;7.252;2023-01-05T11:06:40;28.08;;;9.02;;
64457;SDS011;58438;51.200;7.252;2023-01-05T11:09:28;21.45;;;7.57;;
64457;SDS011;58438;51.200;7.252;2023-01-05T11:12:17;20.38;;;6.70;;
64457;SDS011;58438;51.200;7.252;2023-01-05T11:15:10;24.70;;;9.02;;
64457;SDS011;58438;51.200;7.252;2023-01-05T11:18:04;26.80;;;8.00;;
64457;SDS011;58438;51.200;7.252;2023-01-05T11:21:08;27.15;;;7.82;;
64457;SDS011;58438;51.200;7.252;2023-01-05T11:23:58;21.70;;;6.82;;
64457;SDS011;58438;51.200;7.252;2023-01-05T11:26:49;25.50;;;8.07;;
64457;SDS011;58438;51.200;7.252;2023-01-05T11:29:38;27.40;;;7.38;;
64457;SDS011;58438;51.200;7.252;2023-01-05T11:32:26;28.92;;;7.70;;
64457;SDS011;58438;51.200;7.252;2023-01-05T11:35:17;21.65;;;7.18;;
64457;SDS011;58438;51.200;7.252;2023-01-05T11:38:13;23.75;;;6.43;;
64457;SDS011;58438;51.200;7.252;2023-01-05T11:41:09;24.77;;;7.82;;
64457;SDS011;58438;51.200;7.252;2023-01-05T11:43:59;26.23;;;8.32;;
64457;SDS011;58438;51.200;7.252;2023-01-05T11:46:47;30.75;;;7.65;;
64457;SDS011;58438;51.200;7.252;2023-01-05T11:49:38;20.23;;;7.68;;
64457;SDS011;58438;51.200;7.252;2023-01-05T11:52:26;25.38;;;7.00;;
64457;SDS011;58438;51.200;7.252;2023-01-05T11:55:30;27.95;;;7.50;;
64457;SDS011;58438;51.200;7.252;2023-01-05T11:58:20;19.13;;;8.25;;
64457;SDS011;58438;51.200;7.252;2023-01-05T12:01:17;28.92;;;7.15;;
64457;SDS011;58438;51.200;7.252;2023-01-05T12:04:44;22.40;;;7.00;;
64457;SDS011;58438;51.200;7.252;2023-01-05T12:07:41;19.50;;;6.68;;
64457;SDS011;58438;51.200;7.252;2023-01-05T12:10:38;22.50;;;7.28;;
64457;SDS011;58438;51.200;7.252;2023-01-05T12:13:33;21.73;;;6.50;;
64457;SDS011;58438;51.200;7.252;2023-01-05T12:16:28;22.00;;;6.85;;
64457;SDS011;58438;51.200;7.252;2023-01-05T12:19:36;18.63;;;5.85;;
64457;SDS011;58438;51.200;7.252;2023-01-05T12:22:43;18.98;;;6.05;;
64457;SDS011;58438;51.200;7.252;2023-01-05T12:25:41;18.90;;;6.43;;
64457;SDS011;58438;51.200;7.252;2023-01-05T12:28:40;18.45;;;6.72;;
64457;SDS011;58438;51.200;7.252;2023-01-05T12:31:31;19.77;;;6.30;;
64457;SDS011;58438;51.200;7.252;2023-01-05T12:34:54;23.65;;;6.28;;
64457;SDS011;58438;51.200;7.252;2023-01-05T12:37:47;19.13;;;6.40;;
64457;SDS011;58438;51.200;7.252;2023-01-05T12:40:43;19.50;;;6.72;;
64457;SDS011;58438;51.200;7.252;2023-01-05T12:43:38;18.38;;;6.82;;
64457;SDS011;58438;51.200;7.252;2023-01-05T12:46:30;18.33;;;6.13;;
64457;SDS011;58438;51.200;7.252;2023-01-05T12:49:20;28.92;;;7.03;;
64457;SDS011;58438;51.200;7.252;2023-01-05T12:52:12;26.85;;;6.93;;
64457;SDS011;58438;51.200;7.252;2023-01-05T12:55:03;16.27;;;5.80;;
64457;SDS011;58438;51.200;7.252;2023-01-05T12:57:52;19.80;;;6.50;;
64457;SDS011;58438;51.200;7.252;2023-01-05T13:00:43;18.85;;;5.60;;
64457;SDS011;58438;51.200;7.252;2023-01-05T13:03:32;18.05;;;6.05;;
64457;SDS011;58438;51.200;7.252;2023-01-05T13:06:21;20.15;;;5.88;;
64457;SDS011;58438;51.200;7.252;2023-01-05T13:09:11;16.98;;;5.30;;
64457;SDS011;58438;51.200;7.252;2023-01-05T13:12:03;18.67;;;5.63;;
64457;SDS011;58438;51.200;7.252;2023-01-05T13:14:57;23.05;;;6.20;;
64457;SDS011;58438;51.200;7.252;2023-01-05T13:17:47;22.45;;;6.65;;
64457;SDS011;58438;51.200;7.252;2023-01-05T13:20:35;16.20;;;6.20;;
64457;SDS011;58438;51.200;7.252;2023-01-05T13:23:26;12.52;;;5.22;;
64457;SDS011;58438;51.200;7.252;2023-01-05T13:26:15;25.15;;;6.82;;
64457;SDS011;58438;51.200;7.252;2023-01-05T13:29:04;19.77;;;5.53;;
64457;SDS011;58438;51.200;7.252;2023-01-05T13:32:04;15.13;;;5.28;;
64457;SDS011;58438;51.200;7.252;2023-01-05T13:34:57;18.85;;;5.68;;
64457;SDS011;58438;51.200;7.252;2023-01-05T13:38:00;21.38;;;6.07;;
64457;SDS011;58438;51.200;7.252;2023-01-05T13:40:54;16.30;;;6.47;;
64457;SDS011;58438;51.200;7.252;2023-01-05T13:43:51;22.35;;;6.68;;
64457;SDS011;58438;51.200;7.252;2023-01-05T13:46:48;16.50;;;5.10;;
64457;SDS011;58438;51.200;7.252;2023-01-05T13:49:44;18.33;;;5.72;;
64457;SDS011;58438;51.200;7.252;2023-01-05T13:52:36;19.38;;;5.75;;
64457;SDS011;58438;51.200;7.252;2023-01-05T13:55:30;21.98;;;6.25;;
64457;SDS011;58438;51.200;7.252;2023-01-05T13:58:26;15.15;;;6.22;;
64457;SDS011;58438;51.200;7.252;2023-01-05T14:01:18;16.58;;;5.95;;
64457;SDS011;58438;51.200;7.252;2023-01-05T14:04:14;19.15;;;4.97;;
64457;SDS011;58438;51.200;7.252;2023-01-05T14:07:03;18.45;;;5.40;;
64457;SDS011;58438;51.200;7.252;2023-01-05T14:09:51;13.18;;;4.53;;
64457;SDS011;58438;51.200;7.252;2023-01-05T14:12:41;23.10;;;5.43;;
64457;SDS011;58438;51.200;7.252;2023-01-05T14:15:33;12.55;;;4.78;;
64457;SDS011;58438;51.200;7.252;2023-01-05T14:21:43;17.02;;;5.05;;
64457;SDS011;58438;51.200;7.252;2023-01-05T14:24:45;16.65;;;4.50;;
64457;SDS011;58438;51.200;7.252;2023-01-05T14:27:33;24.08;;;5.30;;
64457;SDS011;58438;51.200;7.252;2023-01-05T14:30:40;18.10;;;4.57;;
64457;SDS011;58438;51.200;7.252;2023-01-05T14:33:27;15.95;;;5.22;;
64457;SDS011;58438;51.200;7.252;2023-01-05T14:36:22;17.10;;;5.05;;
64457;SDS011;58438;51.200;7.252;2023-01-05T14:39:24;20.77;;;5.57;;
64457;SDS011;58438;51.200;7.252;2023-01-05T14:42:16;18.35;;;4.57;;
64457;SDS011;58438;51.200;7.252;2023-01-05T14:45:06;19.88;;;4.90;;
64457;SDS011;58438;51.200;7.252;2023-01-05T14:47:54;15.48;;;4.55;;
64457;SDS011;58438;51.200;7.252;2023-01-05T14:50:42;13.98;;;4.35;;
64457;SDS011;58438;51.200;7.252;2023-01-05T14:53:39;13.38;;;4.32;;
64457;SDS011;58438;51.200;7.252;2023-01-05T14:56:28;22.85;;;5.88;;
64457;SDS011;58438;51.200;7.252;2023-01-05T14:59:16;15.50;;;4.07;;
64457;SDS011;58438;51.200;7.252;2023-01-05T15:02:12;17.92;;;4.75;;
64457;SDS011;58438;51.200;7.252;2023-01-05T15:05:05;19.38;;;5.15;;
64457;SDS011;58438;51.200;7.252;2023-01-05T15:07:59;17.92;;;4.15;;
64457;SDS011;58438;51.200;7.252;2023-01-05T15:10:59;15.90;;;5.03;;
64457;SDS011;58438;51.200;7.252;2023-01-05T15:14:08;22.08;;;5.18;;
64457;SDS011;58438;51.200;7.252;2023-01-05T15:17:32;15.43;;;4.60;;
64457;SDS011;58438;51.200;7.252;2023-01-05T15:20:32;15.80;;;5.18;;
64457;SDS011;58438;51.200;7.252;2023-01-05T15:26:24;15.18;;;4.55;;
64457;SDS011;58438;51.200;7.252;2023-01-05T15:29:23;17.30;;;5.43;;
64457;SDS011;58438;51.200;7.252;2023-01-05T15:32:15;14.77;;;4.72;;
64457;SDS011;58438;51.200;7.252;2023-01-05T15:35:04;19.75;;;4.15;;
64457;SDS011;58438;51.200;7.252;2023-01-05T15:37:55;14.82;;;4.65;;
64457;SDS011;58438;51.200;7.252;2023-01-05T15:40:42;23.17;;;5.05;;
64457;SDS011;58438;51.200;7.252;2023-01-05T15:43:29;16.80;;;4.30;;
64457;SDS011;58438;51.200;7.252;2023-01-05T15:46:19;15.55;;;5.07;;
64457;SDS011;58438;51.200;7.252;2023-01-05T15:49:09;19.67;;;4.93;;
64457;SDS011;58438;51.200;7.252;2023-01-05T15:52:03;17.25;;;4.90;;
64457;SDS011;58438;51.200;7.252;2023-01-05T15:54:57;19.92;;;4.80;;
64457;SDS011;58438;51.200;7.252;2023-01-05T15:57:50;17.95;;;5.05;;
64457;SDS011;58438;51.200;7.252;2023-01-05T16:00:37;19.08;;;5.28;;
64457;SDS011;58438;51.200;7.252;2023-01-05T16:03:27;19.70;;;5.00;;
64457;SDS011;58438;51.200;7.252;2023-01-05T16:06:16;23.27;;;5.45;;
64457;SDS011;58438;51.200;7.252;2023-01-05T16:09:07;12.48;;;5.05;;
64457;SDS011;58438;51.200;7.252;2023-01-05T16:11:58;20.00;;;5.40;;
64457;SDS011;58438;51.200;7.252;2023-01-05T16:14:49;27.02;;;5.22;;
64457;SDS011;58438;51.200;7.252;2023-01-05T16:17:42;21.17;;;5.70;;
64457;SDS011;58438;51.200;7.252;2023-01-05T16:20:31;18.80;;;5.15;;
64457;SDS011;58438;51.200;7.252;2023-01-05T16:23:22;17.73;;;4.72;;
64457;SDS011;58438;51.200;7.252;2023-01-05T16:26:14;27.40;;;6.47;;
64457;SDS011;58438;51.200;7.252;2023-01-05T16:29:17;22.67;;;5.28;;
64457;SDS011;58438;51.200;7.252;2023-01-05T16:35:19;24.02;;;5.72;;
64457;SDS011;58438;51.200;7.252;2023-01-05T16:38:26;22.27;;;5.68;;
64457;SDS011;58438;51.200;7.252;2023-01-05T16:41:21;22.25;;;6.32;;
64457;SDS011;58438;51.200;7.252;2023-01-05T16:44:10;16.83;;;5.63;;
64457;SDS011;58438;51.200;7.252;2023-01-05T16:47:02;28.35;;;5.90;;
64457;SDS011;58438;51.200;7.252;2023-01-05T16:49:51;20.58;;;5.40;;
64457;SDS011;58438;51.200;7.252;2023-01-05T16:52:49;22.90;;;6.45;;
64457;SDS011;58438;51.200;7.252;2023-01-05T16:55:39;27.67;;;5.68;;
64457;SDS011;58438;51.200;7.252;2023-01-05T16:58:36;23.35;;;5.47;;
64457;SDS011;58438;51.200;7.252;2023-01-05T17:01:24;33.63;;;7.07;;
64457;SDS011;58438;51.200;7.252;2023-01-05T17:04:19;29.42;;;6.85;;
64457;SDS011;58438;51.200;7.252;2023-01-05T17:07:07;21.08;;;5.65;;
64457;SDS011;58438;51.200;7.252;2023-01-05T17:09:55;17.20;;;5.43;;
64457;SDS011;58438;51.200;7.252;2023-01-05T17:12:44;19.42;;;6.05;;
64457;SDS011;58438;51.200;7.252;2023-01-05T17:15:37;26.38;;;6.60;;
64457;SDS011;58438;51.200;7.252;2023-01-05T17:18:30;22.15;;;6.15;;
64457;SDS011;58438;51.200;7.252;2023-01-05T17:21:18;13.60;;;4.80;;